createdAt,value
2018-12-14T00:00:26.153Z,10.00
2018-12-14T00:02:53.599Z,12.37
2018-12-14T00:05:21.049Z,11.17
2018-12-14T00:07:48.524Z,11.07
2018-12-14T00:10:15.993Z,9.53
2018-12-14T00:12:43.446Z,11.03
2018-12-14T00:15:10.966Z,12.80
2018-12-14T00:17:38.491Z,12.20
2018-12-14T00:20:06.586Z,12.50
2018-12-14T00:22:34.082Z,11.27
2018-12-14T00:25:01.706Z,13.17
2018-12-14T00:27:29.302Z,11.73
2018-12-14T00:29:57.125Z,11.20
2018-12-14T00:32:24.941Z,12.17
2018-12-14T00:34:52.529Z,12.50
2018-12-14T00:37:20.018Z,11.70
2018-12-14T00:39:47.544Z,12.80
2018-12-14T00:42:15.072Z,11.53
2018-12-14T00:44:42.526Z,12.27
2018-12-14T00:47:09.993Z,11.30
2018-12-14T00:49:37.451Z,11.37
2018-12-14T00:52:04.942Z,12.70
2018-12-14T00:54:32.397Z,12.20
2018-12-14T00:56:59.849Z,12.40
2018-12-14T00:59:27.334Z,12.80
2018-12-14T01:01:54.818Z,12.97
2018-12-14T01:04:22.297Z,12.00
2018-12-14T01:06:49.760Z,12.63
2018-12-14T01:09:17.241Z,12.03
2018-12-14T01:11:44.728Z,11.47
2018-12-14T01:14:12.185Z,13.33
2018-12-14T01:16:39.701Z,12.40
2018-12-14T01:19:07.233Z,10.57
2018-12-14T01:21:34.730Z,11.37
2018-12-14T01:24:02.281Z,12.30
2018-12-14T01:26:29.734Z,11.40
2018-12-14T01:28:57.217Z,12.10
2018-12-14T01:31:24.675Z,9.73
2018-12-14T01:33:52.165Z,11.40
2018-12-14T01:36:19.645Z,13.07
2018-12-14T01:38:47.102Z,12.20
2018-12-14T01:41:14.586Z,10.07
2018-12-14T01:43:42.036Z,12.37
2018-12-14T01:46:09.506Z,10.60
2018-12-14T01:48:37.037Z,11.50
2018-12-14T01:51:04.545Z,11.70
2018-12-14T01:53:32.024Z,12.77
2018-12-14T01:55:59.621Z,12.30
2018-12-14T01:58:27.117Z,11.43
2018-12-14T02:00:54.575Z,12.00
2018-12-14T02:03:22.044Z,9.90
2018-12-14T02:05:49.527Z,11.03
2018-12-14T02:08:17.013Z,9.40
2018-12-14T02:10:44.480Z,10.53
2018-12-14T02:13:11.986Z,12.73
2018-12-14T02:15:39.450Z,11.53
2018-12-14T02:18:06.971Z,13.67
2018-12-14T02:20:34.419Z,10.77
2018-12-14T02:23:01.945Z,10.50
2018-12-14T02:25:29.398Z,12.40
2018-12-14T02:27:56.869Z,9.07
2018-12-14T02:30:36.251Z,12.90
2018-12-14T02:33:03.789Z,11.90
2018-12-14T02:35:31.344Z,13.83
2018-12-14T02:37:59.054Z,12.70
2018-12-14T02:40:26.515Z,10.93
2018-12-14T02:42:54.042Z,12.67
2018-12-14T02:45:21.495Z,13.47
2018-12-14T02:47:48.983Z,12.53
2018-12-14T02:50:16.562Z,14.10
2018-12-14T02:52:44.020Z,12.67
2018-12-14T02:55:11.526Z,13.83
2018-12-14T02:57:39.050Z,11.43
2018-12-14T03:00:08.591Z,12.87
2018-12-14T03:02:36.256Z,14.30
2018-12-14T03:05:04.809Z,12.37
2018-12-14T03:07:32.476Z,13.40
2018-12-14T03:10:00.228Z,12.60
2018-12-14T03:12:27.702Z,12.73
2018-12-14T03:14:55.164Z,13.80
2018-12-14T03:17:22.878Z,12.23
2018-12-14T03:19:50.723Z,13.67
2018-12-14T03:22:18.362Z,14.83
2018-12-14T03:24:45.818Z,13.03
2018-12-14T03:27:13.285Z,13.60
2018-12-14T03:29:40.763Z,12.97
2018-12-14T03:32:08.251Z,12.40
2018-12-14T03:34:35.903Z,13.87
2018-12-14T03:37:03.442Z,15.30
2018-12-14T03:39:30.913Z,13.60
2018-12-14T03:41:58.367Z,13.60
2018-12-14T03:44:25.854Z,16.47
2018-12-14T03:46:53.309Z,14.40
2018-12-14T03:49:20.810Z,12.97
2018-12-14T03:51:48.378Z,14.13
2018-12-14T03:54:15.967Z,12.70
2018-12-14T03:56:43.423Z,15.37
2018-12-14T03:59:10.907Z,15.70
2018-12-14T04:01:38.355Z,14.50
2018-12-14T04:04:05.834Z,14.47
2018-12-14T04:06:33.290Z,13.70
2018-12-14T04:09:00.770Z,15.17
2018-12-14T04:11:28.241Z,14.07
2018-12-14T04:13:55.707Z,14.73
2018-12-14T04:16:23.174Z,14.80
2018-12-14T04:18:50.636Z,17.63
2018-12-14T04:21:18.231Z,15.50
2018-12-14T04:23:45.722Z,15.23
2018-12-14T04:26:13.220Z,14.30
2018-12-14T04:28:40.694Z,15.57
2018-12-14T04:31:08.145Z,15.57
2018-12-14T04:33:35.901Z,15.80
2018-12-14T04:36:03.403Z,13.30
2018-12-14T04:38:30.881Z,17.90
2018-12-14T04:40:58.331Z,14.77
2018-12-14T04:43:25.815Z,14.67
2018-12-14T04:45:53.290Z,13.97
2018-12-14T04:48:20.745Z,15.20
2018-12-14T04:50:48.234Z,13.63
2018-12-14T04:53:15.685Z,14.33
2018-12-14T04:55:43.184Z,14.27
2018-12-14T04:58:10.706Z,14.27
2018-12-14T05:00:38.199Z,16.00
2018-12-14T05:03:05.726Z,16.83
2018-12-14T05:05:33.182Z,13.20
2018-12-14T05:08:00.663Z,18.60
2018-12-14T05:10:28.106Z,14.63
2018-12-14T05:12:56.258Z,15.93
2018-12-14T05:15:24.191Z,16.17
2018-12-14T05:17:51.660Z,15.47
2018-12-14T05:20:19.149Z,16.03
2018-12-14T05:22:46.626Z,15.80
2018-12-14T05:25:14.077Z,13.30
2018-12-14T05:27:41.594Z,15.10
2018-12-14T05:30:09.182Z,14.83
2018-12-14T05:32:36.667Z,15.67
2018-12-14T05:35:04.658Z,16.50
2018-12-14T05:37:32.114Z,16.90
2018-12-14T05:39:59.677Z,14.97
2018-12-14T05:42:27.187Z,15.67
2018-12-14T05:44:54.642Z,16.47
2018-12-14T05:47:22.209Z,16.93
2018-12-14T05:49:49.670Z,15.97
2018-12-14T05:52:17.167Z,13.40
2018-12-14T05:54:44.642Z,16.10
2018-12-14T05:57:12.094Z,17.87
2018-12-14T05:59:39.573Z,17.13
2018-12-14T06:02:07.030Z,14.27
2018-12-14T06:04:34.514Z,17.43
2018-12-14T06:07:01.970Z,18.43
2018-12-14T06:09:29.505Z,15.30
2018-12-14T06:11:57.013Z,16.37
2018-12-14T06:14:24.582Z,15.80
2018-12-14T06:16:52.034Z,16.57
2018-12-14T06:19:19.517Z,16.47
2018-12-14T06:21:47.022Z,16.80
2018-12-14T06:24:14.614Z,16.90
2018-12-14T06:26:42.252Z,15.73
2018-12-14T06:29:09.729Z,16.67
2018-12-14T06:31:37.298Z,14.70
2018-12-14T06:34:04.817Z,14.40
2018-12-14T06:36:32.293Z,14.13
2018-12-14T06:38:59.770Z,15.90
2018-12-14T06:41:27.253Z,15.70
2018-12-14T06:43:54.714Z,14.87
2018-12-14T06:46:22.187Z,14.40
2018-12-14T06:48:49.652Z,14.57
2018-12-14T06:51:17.142Z,16.03
2018-12-14T06:53:44.593Z,15.87
2018-12-14T06:56:12.078Z,15.33
2018-12-14T06:58:39.549Z,16.73
2018-12-14T07:01:07.051Z,16.17
2018-12-14T07:03:34.526Z,14.57
2018-12-14T07:06:02.061Z,17.40
2018-12-14T07:08:29.547Z,16.07
2018-12-14T07:10:56.990Z,15.30
2018-12-14T07:13:24.559Z,17.23
2018-12-14T07:15:52.064Z,15.13
2018-12-14T07:18:19.542Z,14.97
2018-12-14T07:20:47.258Z,13.93
2018-12-14T07:23:14.766Z,17.20
2018-12-14T07:25:42.302Z,15.10
2018-12-14T07:28:09.777Z,14.77
2018-12-14T07:30:37.892Z,16.00
2018-12-14T07:33:05.405Z,15.80
2018-12-14T07:35:32.853Z,16.40
2018-12-14T07:38:00.338Z,16.50
2018-12-14T07:40:27.831Z,16.57
2018-12-14T07:42:55.341Z,16.10
2018-12-14T07:45:22.790Z,15.50
2018-12-14T07:47:50.278Z,16.90
2018-12-14T07:50:17.750Z,17.70
2018-12-14T07:52:45.242Z,16.17
2018-12-14T07:55:12.833Z,16.00
2018-12-14T07:57:40.291Z,16.23
2018-12-14T08:00:08.109Z,15.23
2018-12-14T08:02:35.612Z,17.20
2018-12-14T08:05:04.382Z,12.40
2018-12-14T08:07:31.855Z,17.10
2018-12-14T08:09:59.310Z,16.90
2018-12-14T08:12:26.846Z,16.77
2018-12-14T08:14:54.407Z,14.07
2018-12-14T08:17:21.862Z,16.37
2018-12-14T08:19:49.355Z,14.57
2018-12-14T08:22:16.846Z,15.40
2018-12-14T08:24:44.340Z,16.37
2018-12-14T08:27:11.814Z,14.63
2018-12-14T08:29:39.303Z,14.40
2018-12-14T08:32:06.761Z,16.17
2018-12-14T08:34:34.244Z,15.43
2018-12-14T08:37:01.777Z,16.93
2018-12-14T08:39:29.282Z,15.60
2018-12-14T08:41:56.959Z,13.57
2018-12-14T08:44:24.451Z,14.70
2018-12-14T08:46:51.990Z,16.53
2018-12-14T08:49:19.501Z,14.53
2018-12-14T08:51:46.969Z,15.80
2018-12-14T08:54:14.471Z,12.00
2018-12-14T08:56:42.680Z,14.23
2018-12-14T08:59:10.167Z,13.43
2018-12-14T09:01:37.682Z,11.40
2018-12-14T09:04:05.138Z,14.77
2018-12-14T09:06:32.611Z,14.57
2018-12-14T09:09:00.061Z,13.60
2018-12-14T09:11:27.632Z,13.23
2018-12-14T09:13:55.099Z,14.17
2018-12-14T09:16:22.588Z,16.03
2018-12-14T09:18:50.046Z,15.57
2018-12-14T09:21:17.523Z,15.43
2018-12-14T09:23:44.972Z,14.17
2018-12-14T09:26:12.839Z,15.10
2018-12-14T09:28:40.458Z,14.77
2018-12-14T09:31:07.958Z,13.77
2018-12-14T09:33:35.422Z,15.37
2018-12-14T09:36:02.903Z,15.53
2018-12-14T09:38:30.361Z,14.17
2018-12-14T09:40:57.834Z,14.87
2018-12-14T09:43:25.334Z,15.20
2018-12-14T09:45:52.906Z,15.20
2018-12-14T09:48:20.392Z,15.53
2018-12-14T09:50:47.898Z,16.50
2018-12-14T09:53:15.380Z,15.07
2018-12-14T09:55:42.832Z,15.77
2018-12-14T09:58:10.316Z,13.93
2018-12-14T10:00:37.776Z,15.90
2018-12-14T10:03:05.314Z,16.30
2018-12-14T10:05:32.808Z,16.00
2018-12-14T10:08:00.297Z,15.90
2018-12-14T10:10:27.803Z,16.97
2018-12-14T10:12:55.292Z,15.40
2018-12-14T10:15:22.847Z,15.40
2018-12-14T10:17:50.303Z,15.07
2018-12-14T10:20:17.792Z,14.60
2018-12-14T10:22:45.250Z,14.90
2018-12-14T10:25:12.700Z,16.20
2018-12-14T10:27:40.170Z,17.67
2018-12-14T10:30:09.334Z,15.57
2018-12-14T10:32:36.787Z,14.83
2018-12-14T10:35:07.560Z,15.80
2018-12-14T10:37:35.038Z,15.50
2018-12-14T10:40:03.195Z,13.67
2018-12-14T10:42:30.706Z,16.47
2018-12-14T10:44:58.257Z,13.93
2018-12-14T10:47:25.770Z,11.87
2018-12-14T10:49:53.238Z,14.63
2018-12-14T10:52:20.743Z,14.97
2018-12-14T10:54:48.286Z,14.70
2018-12-14T10:57:16.265Z,14.97
2018-12-14T10:59:43.942Z,14.40
2018-12-14T11:02:11.413Z,14.47
2018-12-14T11:04:38.994Z,15.00
2018-12-14T11:07:06.498Z,11.03
2018-12-14T11:09:34.020Z,12.37
2018-12-14T11:12:01.618Z,13.70
2018-12-14T11:14:29.150Z,15.43
2018-12-14T11:16:56.633Z,15.93
2018-12-14T11:19:24.080Z,15.70
2018-12-14T11:21:51.566Z,17.37
2018-12-14T11:24:19.026Z,16.00
2018-12-14T11:26:46.487Z,16.97
2018-12-14T11:29:14.008Z,12.57
2018-12-14T11:31:42.371Z,15.90
2018-12-14T11:34:09.846Z,15.13
2018-12-14T11:36:37.368Z,13.47
2018-12-14T11:39:06.123Z,11.27
2018-12-14T11:41:33.754Z,14.47
2018-12-14T11:44:01.231Z,14.97
2018-12-14T11:46:28.706Z,14.87
2018-12-14T11:48:56.247Z,15.70
2018-12-14T11:51:23.702Z,14.90
2018-12-14T11:53:51.166Z,16.50
2018-12-14T11:56:18.655Z,11.50
2018-12-14T11:58:46.113Z,14.13
2018-12-14T12:01:13.623Z,15.33
2018-12-14T12:03:42.874Z,16.47
2018-12-14T12:06:10.547Z,14.97
2018-12-14T12:08:38.020Z,14.87
2018-12-14T12:11:05.511Z,15.63
2018-12-14T12:13:32.949Z,16.07
2018-12-14T12:16:00.430Z,13.93
2018-12-14T12:18:27.897Z,14.47
2018-12-14T12:20:55.431Z,14.83
2018-12-14T12:23:22.889Z,13.93
2018-12-14T12:25:50.382Z,13.73
2018-12-14T12:28:17.842Z,15.60
2018-12-14T12:30:45.326Z,13.80
2018-12-14T12:33:12.781Z,15.77
2018-12-14T12:35:40.251Z,13.40
2018-12-14T12:38:07.731Z,16.40
2018-12-14T12:40:35.195Z,12.80
2018-12-14T12:43:02.664Z,14.60
2018-12-14T12:45:30.199Z,13.03
2018-12-14T12:47:57.651Z,14.40
2018-12-14T12:50:25.129Z,14.67
2018-12-14T12:52:52.590Z,13.33
2018-12-14T12:55:20.078Z,14.30
2018-12-14T12:57:47.547Z,16.20
2018-12-14T13:00:15.130Z,15.63
2018-12-14T13:02:42.614Z,14.37
2018-12-14T13:05:10.130Z,13.90
2018-12-14T13:07:37.612Z,14.60
2018-12-14T13:10:05.115Z,14.50
2018-12-14T13:12:32.602Z,12.67
2018-12-14T13:15:00.072Z,12.70
2018-12-14T13:17:27.558Z,14.17
2018-12-14T13:19:55.014Z,14.70
2018-12-14T13:22:22.502Z,13.97
2018-12-14T13:24:49.958Z,15.10
2018-12-14T13:27:20.344Z,13.47
2018-12-14T13:29:47.169Z,13.77
2018-12-14T13:32:14.635Z,13.57
2018-12-14T13:34:42.117Z,12.63
2018-12-14T13:37:09.608Z,13.83
2018-12-14T13:39:37.125Z,14.20
2018-12-14T13:42:04.701Z,14.37
2018-12-14T13:44:32.338Z,13.40
2018-12-14T13:46:59.947Z,13.87
2018-12-14T13:49:27.454Z,15.70
2018-12-14T13:51:54.923Z,14.10
2018-12-14T13:54:22.384Z,15.27
2018-12-14T13:56:49.873Z,13.33
2018-12-14T13:59:17.347Z,12.90
2018-12-14T14:01:44.807Z,15.10
2018-12-14T14:04:12.351Z,14.07
2018-12-14T14:06:39.794Z,17.03
2018-12-14T14:09:07.299Z,14.40
2018-12-14T14:11:34.815Z,14.60
2018-12-14T14:14:02.287Z,14.67
2018-12-14T14:16:29.766Z,13.10
2018-12-14T14:18:57.250Z,15.50
2018-12-14T14:21:24.789Z,14.37
2018-12-14T14:23:52.274Z,13.03
2018-12-14T14:26:19.744Z,16.03
2018-12-14T14:28:47.200Z,15.33
2018-12-14T14:31:14.698Z,13.53
2018-12-14T14:33:42.154Z,13.80
2018-12-14T14:36:09.616Z,14.60
2018-12-14T14:38:37.249Z,12.70
2018-12-14T14:41:04.731Z,14.33
2018-12-14T14:43:32.186Z,14.00
2018-12-14T14:45:59.635Z,12.73
2018-12-14T14:48:27.097Z,12.30
2018-12-14T14:50:54.582Z,14.50
2018-12-14T14:53:22.056Z,13.80
2018-12-14T14:55:49.515Z,13.47
2018-12-14T14:58:17.034Z,14.40
2018-12-14T15:00:44.500Z,13.97
2018-12-14T15:03:12.006Z,13.00
2018-12-14T15:05:39.513Z,14.50
2018-12-14T15:08:06.970Z,12.93
2018-12-14T15:10:34.442Z,14.83
2018-12-14T15:13:01.907Z,12.00
2018-12-14T15:15:29.486Z,12.90
2018-12-14T15:17:56.957Z,12.60
2018-12-14T15:20:24.470Z,11.57
2018-12-14T15:22:51.927Z,12.30
2018-12-14T15:25:19.400Z,11.57
2018-12-14T15:27:46.860Z,13.43
2018-12-14T15:30:14.346Z,12.27
2018-12-14T15:32:41.806Z,10.00
2018-12-14T15:35:09.275Z,11.10
2018-12-14T15:37:36.797Z,13.40
2018-12-14T15:40:06.529Z,12.27
2018-12-14T15:42:34.009Z,12.27
2018-12-14T15:45:01.510Z,10.57
2018-12-14T15:47:29.064Z,10.67
2018-12-14T15:49:56.522Z,10.70
2018-12-14T15:52:24.051Z,11.67
2018-12-14T15:54:51.530Z,12.30
2018-12-14T15:57:19.047Z,11.50
2018-12-14T15:59:46.558Z,11.63
2018-12-14T16:02:14.031Z,12.90
2018-12-14T16:04:41.505Z,13.00
2018-12-14T16:07:09.047Z,12.00
2018-12-14T16:09:36.503Z,12.50
2018-12-14T16:12:04.027Z,13.47
2018-12-14T16:14:34.454Z,13.27
2018-12-14T16:17:01.035Z,14.27
2018-12-14T16:19:28.496Z,13.57
2018-12-14T16:21:55.994Z,13.47
2018-12-14T16:24:23.563Z,14.27
2018-12-14T16:26:51.024Z,13.00
2018-12-14T16:29:18.574Z,12.30
2018-12-14T16:31:46.112Z,11.00
2018-12-14T16:34:13.592Z,11.30
2018-12-14T16:36:41.091Z,12.30
2018-12-14T16:39:08.544Z,12.87
2018-12-14T16:41:36.080Z,12.93
2018-12-14T16:44:03.561Z,13.77
2018-12-14T16:46:49.228Z,14.40
2018-12-14T16:49:16.753Z,13.87
2018-12-14T16:51:44.360Z,14.47
2018-12-14T16:54:11.808Z,13.40
2018-12-14T16:56:39.281Z,14.87
2018-12-14T16:59:06.758Z,15.97
2018-12-14T17:01:34.247Z,14.37
2018-12-14T17:04:01.791Z,13.10
2018-12-14T17:06:29.319Z,14.40
2018-12-14T17:08:56.817Z,14.43
2018-12-14T17:11:24.559Z,13.30
2018-12-14T17:13:52.078Z,12.67
2018-12-14T17:16:19.564Z,12.70
2018-12-14T17:18:47.014Z,11.77
2018-12-14T17:21:14.513Z,12.83
2018-12-14T17:23:41.995Z,13.13
2018-12-14T17:26:09.498Z,11.13
2018-12-14T17:28:37.018Z,11.77
2018-12-14T17:31:04.566Z,11.73
2018-12-14T17:33:35.979Z,10.37
2018-12-14T17:36:01.536Z,12.40
2018-12-14T17:38:28.991Z,11.50
2018-12-14T17:40:56.458Z,13.43
2018-12-14T17:43:23.916Z,13.80
2018-12-14T17:45:51.402Z,13.10
2018-12-14T17:48:18.903Z,13.40
2018-12-14T17:50:46.357Z,12.57
2018-12-14T17:53:13.827Z,12.50
2018-12-14T17:55:41.303Z,12.90
2018-12-14T17:58:08.754Z,12.63
2018-12-14T18:00:36.585Z,12.80
2018-12-14T18:03:04.082Z,13.23
2018-12-14T18:05:31.563Z,12.43
2018-12-14T18:07:59.019Z,16.13
2018-12-14T18:10:26.501Z,16.60
2018-12-14T18:12:53.969Z,14.20
2018-12-14T18:15:21.422Z,12.57
2018-12-14T18:17:48.900Z,10.40
2018-12-14T18:20:16.390Z,11.60
2018-12-14T18:22:43.894Z,11.53
2018-12-14T18:25:11.779Z,12.70
2018-12-14T18:27:39.693Z,12.07
2018-12-14T18:30:13.051Z,12.90
2018-12-14T18:32:40.510Z,12.37
2018-12-14T18:35:08.078Z,12.50
2018-12-14T18:37:35.560Z,13.27
2018-12-14T18:40:04.509Z,13.97
2018-12-14T18:42:32.079Z,12.87
2018-12-14T18:44:59.545Z,12.87
2018-12-14T18:47:27.136Z,15.17
2018-12-14T18:49:54.673Z,15.80
2018-12-14T18:52:22.252Z,14.60
2018-12-14T18:54:49.833Z,13.50
2018-12-14T18:57:17.471Z,13.73
2018-12-14T18:59:45.030Z,14.60
2018-12-14T19:02:13.539Z,14.77
2018-12-14T19:04:41.005Z,15.23
2018-12-14T19:07:08.575Z,15.80
2018-12-14T19:09:36.353Z,14.67
2018-12-14T19:12:03.991Z,13.83
2018-12-14T19:14:31.539Z,14.20
2018-12-14T19:16:59.019Z,12.90
2018-12-14T19:19:26.463Z,13.97
2018-12-14T19:21:53.955Z,13.23
2018-12-14T19:24:21.569Z,12.73
2018-12-14T19:26:49.043Z,13.30
2018-12-14T19:29:16.612Z,12.70
2018-12-14T19:31:44.132Z,12.70
2018-12-14T19:34:11.607Z,13.50
2018-12-14T19:36:39.069Z,11.00
2018-12-14T19:39:06.621Z,12.60
2018-12-14T19:41:34.105Z,14.20
2018-12-14T19:44:01.660Z,12.87
2018-12-14T19:46:29.137Z,14.20
2018-12-14T19:48:56.708Z,16.67
2018-12-14T19:51:24.285Z,15.03
2018-12-14T19:53:51.995Z,15.57
2018-12-14T19:56:19.561Z,13.83
2018-12-14T19:58:47.086Z,12.63
2018-12-14T20:01:14.592Z,14.63
2018-12-14T20:03:42.073Z,14.37
2018-12-14T20:06:09.584Z,14.63
2018-12-14T20:08:37.246Z,14.70
2018-12-14T20:11:04.911Z,16.50
2018-12-14T20:13:32.434Z,14.03
2018-12-14T20:15:59.916Z,16.27
2018-12-14T20:18:27.541Z,13.50
2018-12-14T20:20:55.093Z,15.20
2018-12-14T20:23:22.777Z,14.10
2018-12-14T20:25:50.445Z,14.03
2018-12-14T20:28:17.928Z,15.20
2018-12-14T20:30:45.382Z,14.57
2018-12-14T20:33:12.955Z,15.17
2018-12-14T20:35:40.489Z,16.27
2018-12-14T20:38:08.208Z,14.70
2018-12-14T20:40:35.770Z,15.50
2018-12-14T20:43:03.774Z,13.90
2018-12-14T20:45:31.473Z,15.47
2018-12-14T20:47:58.954Z,13.50
2018-12-14T20:50:26.417Z,16.33
2018-12-14T20:52:53.900Z,14.43
2018-12-14T20:55:21.474Z,14.47
2018-12-14T20:57:49.137Z,14.30
2018-12-14T21:00:16.717Z,13.53
2018-12-14T21:02:44.213Z,15.00
2018-12-14T21:05:11.838Z,14.73
2018-12-14T21:07:39.297Z,13.60
2018-12-14T21:10:07.011Z,15.00
2018-12-14T21:12:34.595Z,15.30
2018-12-14T21:15:02.164Z,12.83
2018-12-14T21:17:29.777Z,13.70
2018-12-14T21:19:57.344Z,14.57
2018-12-14T21:22:25.101Z,14.03
2018-12-14T21:24:53.776Z,14.13
2018-12-14T21:27:21.406Z,13.80
2018-12-14T21:29:49.832Z,14.83
2018-12-14T21:32:17.345Z,14.43
2018-12-14T21:34:44.941Z,14.90
2018-12-14T21:37:12.421Z,14.33
2018-12-14T21:39:39.875Z,15.40
2018-12-14T21:42:07.363Z,14.63
2018-12-14T21:44:34.826Z,14.87
2018-12-14T21:47:02.314Z,14.30
2018-12-14T21:49:30.036Z,14.90
2018-12-14T21:51:57.505Z,15.40
2018-12-14T21:54:24.991Z,14.50
2018-12-14T21:56:52.442Z,15.43
2018-12-14T21:59:19.920Z,13.50
2018-12-14T22:01:47.442Z,15.83
2018-12-14T22:04:14.948Z,15.00
2018-12-14T22:06:42.412Z,13.97
2018-12-14T22:09:09.872Z,16.43
2018-12-14T22:11:37.341Z,13.97
2018-12-14T22:14:04.918Z,14.10
2018-12-14T22:16:38.972Z,15.40
2018-12-14T22:19:02.001Z,14.20
2018-12-14T22:21:29.455Z,14.83
2018-12-14T22:23:56.950Z,15.23
2018-12-14T22:26:24.533Z,14.87
2018-12-14T22:28:52.054Z,13.50
2018-12-14T22:31:19.513Z,14.13
2018-12-14T22:33:47.008Z,15.00
2018-12-14T22:36:14.462Z,15.77
2018-12-14T22:38:41.954Z,14.63
2018-12-14T22:41:09.419Z,14.30
2018-12-14T22:43:36.870Z,14.23
2018-12-14T22:46:04.369Z,13.80
2018-12-14T22:48:31.865Z,13.97
2018-12-14T22:50:59.326Z,15.23
2018-12-14T22:53:26.806Z,14.37
2018-12-14T22:55:54.322Z,14.80
2018-12-14T22:58:21.805Z,14.70
2018-12-14T23:00:53.462Z,15.33
2018-12-14T23:03:21.235Z,15.13
2018-12-14T23:05:49.580Z,15.60
2018-12-14T23:08:17.110Z,15.00
2018-12-14T23:10:44.570Z,14.13
2018-12-14T23:13:12.067Z,14.07
2018-12-14T23:15:39.688Z,14.23
2018-12-14T23:18:07.202Z,14.17
2018-12-14T23:20:34.705Z,15.30
2018-12-14T23:23:02.232Z,13.73
2018-12-14T23:25:29.811Z,15.50
2018-12-14T23:27:57.257Z,16.30
2018-12-14T23:30:24.726Z,16.27
2018-12-14T23:32:52.358Z,14.77
2018-12-14T23:35:19.878Z,15.97
2018-12-14T23:37:47.342Z,13.83
2018-12-14T23:40:14.827Z,16.10
2018-12-14T23:42:42.306Z,13.93
2018-12-14T23:45:09.870Z,15.80
2018-12-14T23:47:37.342Z,13.70
2018-12-14T23:50:04.836Z,15.13
2018-12-14T23:52:32.309Z,14.13
2018-12-14T23:54:59.764Z,15.30
2018-12-14T23:57:27.317Z,13.97
2018-12-14T23:59:54.853Z,15.63
